Time;durP1;ratioP1;P1;durP2;ratioP2;P2;SDS_P1;SDS_P2;PMS_P1;PMS_P2;Temp;Humidity;BMP_temperature;BMP_pressure;BME280_temperature;BME280_humidity;BME280_pressure;Samples;Min_cycle;Max_cycle;Signal;HPM_P1;HPM_P2
2020/12/13 09:44:47;;;;;;;6.22;0.70;;;18.20;70.00;;;;;;4704874;27;10001509;-48
2020/12/13 09:47:12;;;;;;;4.07;0.50;;;18.30;70.50;;;;;;5059213;28;20040;-44
2020/12/13 09:49:39;;;;;;;4.88;0.80;;;18.30;71.20;;;;;;5060535;28;20033;-55
2020/12/13 09:52:05;;;;;;;15.40;0.60;;;18.30;70.40;;;;;;5058249;28;20033;-48
2020/12/13 09:54:30;;;;;;;5.60;0.90;;;18.40;70.10;;;;;;5061452;28;20039;-51
2020/12/13 09:56:57;;;;;;;2.05;0.47;;;18.40;70.10;;;;;;5062331;28;20495;-50
2020/12/13 09:59:22;;;;;;;2.45;0.65;;;18.40;70.00;;;;;;5061169;28;20029;-48
2020/12/13 10:01:48;;;;;;;2.03;0.52;;;18.50;70.10;;;;;;5060274;28;20040;-50
2020/12/13 10:04:15;;;;;;;8.20;0.82;;;18.50;70.10;;;;;;5059588;28;20417;-48
2020/12/13 10:09:14;;;;;;;5.18;0.60;;;18.60;70.20;;;;;;5064464;28;20377;-48
2020/12/13 10:11:40;;;;;;;1.40;0.50;;;18.50;69.90;;;;;;5063523;28;20116;-52
2020/12/13 10:14:07;;;;;;;1.05;0.52;;;18.60;69.90;;;;;;5063611;28;20107;-50
2020/12/13 10:16:34;;;;;;;1.25;0.85;;;18.60;69.80;;;;;;5060546;28;20036;-46
2020/12/13 10:18:59;;;;;;;0.60;0.40;;;18.60;69.60;;;;;;5063541;28;20047;-44
2020/12/13 10:21:30;;;;;;;2.28;0.70;;;18.50;69.50;;;;;;5066227;28;20029;-48
2020/12/13 10:23:56;;;;;;;8.18;0.75;;;18.60;69.50;;;;;;5062918;28;20059;-47
2020/12/13 10:26:25;;;;;;;6.88;0.80;;;18.60;69.30;;;;;;5063487;28;20021;-45
2020/12/13 10:28:51;;;;;;;10.05;0.80;;;18.60;69.40;;;;;;5063763;28;20043;-45
2020/12/13 10:31:17;;;;;;;7.50;0.95;;;18.60;69.10;;;;;;5061924;28;20028;-45
2020/12/13 10:33:43;;;;;;;8.23;1.33;;;18.60;68.90;;;;;;5064964;28;20029;-49
2020/12/13 10:36:10;;;;;;;6.55;0.80;;;18.60;68.80;;;;;;5065320;28;20461;-45
2020/12/13 10:38:36;;;;;;;3.00;0.80;;;18.60;68.90;;;;;;5064435;28;20024;-48
2020/12/13 10:41:03;;;;;;;8.45;1.20;;;18.60;68.80;;;;;;5065267;28;20043;-45
2020/12/13 10:43:29;;;;;;;8.27;0.90;;;18.60;68.60;;;;;;5063963;28;20094;-45
2020/12/13 10:45:55;;;;;;;2.45;0.70;;;18.60;68.40;;;;;;5062690;28;20032;-46
2020/12/13 10:48:20;;;;;;;3.05;0.60;;;18.70;68.20;;;;;;5066398;28;20048;-50
2020/12/13 10:50:46;;;;;;;4.78;0.85;;;18.70;67.80;;;;;;5063065;28;20377;-46
2020/12/13 10:53:11;;;;;;;6.60;0.70;;;18.70;67.70;;;;;;5063293;28;20033;-47
2020/12/13 10:55:37;;;;;;;3.25;0.43;;;18.60;67.70;;;;;;5050716;28;20021;-48
2020/12/13 10:58:03;;;;;;;1.42;0.52;;;18.70;67.60;;;;;;5047487;28;20405;-42
2020/12/13 11:00:28;;;;;;;6.82;0.60;;;18.60;67.80;;;;;;5052024;28;20088;-45
2020/12/13 11:02:54;;;;;;;6.57;0.93;;;18.60;68.40;;;;;;5049602;28;20049;-50
2020/12/13 11:05:19;;;;;;;1.77;0.93;;;18.70;68.50;;;;;;5049119;28;20477;-50
2020/12/13 11:07:45;;;;;;;2.97;0.65;;;18.80;68.30;;;;;;5048480;28;20040;-51
2020/12/13 11:10:11;;;;;;;4.72;0.68;;;18.80;68.30;;;;;;5048531;28;20052;-47
2020/12/13 11:12:36;;;;;;;0.98;0.55;;;18.80;68.30;;;;;;5051534;28;20028;-48
2020/12/13 11:15:03;;;;;;;5.15;0.75;;;18.80;68.40;;;;;;5048725;28;20025;-50
2020/12/13 11:17:29;;;;;;;1.60;0.60;;;18.70;68.00;;;;;;5049153;28;20040;-50
2020/12/13 11:19:54;;;;;;;11.23;1.08;;;18.70;68.10;;;;;;5048479;28;20032;-50
2020/12/13 11:22:20;;;;;;;3.50;0.57;;;18.80;68.30;;;;;;5046862;28;20513;-52
2020/12/13 11:24:45;;;;;;;4.82;0.77;;;18.80;68.10;;;;;;5050396;28;20037;-50
2020/12/13 11:27:11;;;;;;;6.80;0.80;;;18.80;68.80;;;;;;5051382;28;20110;-52
2020/12/13 11:29:37;;;;;;;2.55;0.75;;;18.90;69.90;;;;;;5049617;28;20388;-45
2020/12/13 11:32:02;;;;;;;3.65;0.90;;;18.90;70.20;;;;;;5046919;28;20086;-49
2020/12/13 11:34:28;;;;;;;6.07;0.85;;;18.90;70.60;;;;;;5047323;28;20365;-49
2020/12/13 11:36:54;;;;;;;3.13;0.98;;;18.90;71.30;;;;;;5048277;28;20741;-52
2020/12/13 11:39:19;;;;;;;3.28;0.88;;;18.90;70.70;;;;;;5052314;28;20017;-49
2020/12/13 11:41:45;;;;;;;3.15;0.80;;;18.90;70.50;;;;;;5049084;28;20033;-50
2020/12/13 11:44:11;;;;;;;3.22;0.98;;;18.90;70.30;;;;;;4697219;28;10000451;-47
2020/12/13 11:46:36;;;;;;;4.95;0.60;;;18.90;70.30;;;;;;5046673;28;20100;-47
2020/12/13 11:49:02;;;;;;;3.15;0.50;;;18.80;70.00;;;;;;5047310;28;20025;-49
2020/12/13 11:51:27;;;;;;;5.88;0.75;;;18.90;70.30;;;;;;5049838;28;20036;-42
2020/12/13 11:53:53;;;;;;;4.70;0.70;;;18.90;70.30;;;;;;5044940;28;20045;-44
2020/12/13 11:56:20;;;;;;;1.77;0.82;;;18.90;70.10;;;;;;5045365;28;20032;-44
2020/12/13 11:58:46;;;;;;;5.20;0.82;;;18.90;70.10;;;;;;5044300;28;20142;-47
2020/12/13 12:01:11;;;;;;;4.47;0.60;;;18.90;70.80;;;;;;5044621;28;20024;-47
2020/12/13 12:03:37;;;;;;;3.42;0.43;;;18.90;70.00;;;;;;5048853;28;20033;-46
2020/12/13 12:06:03;;;;;;;4.63;0.73;;;18.90;70.00;;;;;;5045498;28;20055;-52
2020/12/13 12:08:29;;;;;;;3.20;0.40;;;18.90;70.10;;;;;;5044139;28;20063;-45
2020/12/13 12:10:54;;;;;;;1.98;0.30;;;18.90;70.10;;;;;;5042901;28;20059;-48
2020/12/13 12:13:20;;;;;;;2.55;0.60;;;18.90;70.10;;;;;;5045320;28;20033;-45
2020/12/13 12:15:45;;;;;;;3.30;0.47;;;19.00;70.10;;;;;;5046009;28;20028;-44
2020/12/13 12:18:11;;;;;;;3.40;0.63;;;19.00;70.20;;;;;;5047887;28;20389;-43
2020/12/13 12:20:37;;;;;;;0.65;0.30;;;19.00;70.50;;;;;;5044759;28;20025;-42
2020/12/13 12:23:02;;;;;;;1.95;0.40;;;19.00;70.40;;;;;;5045577;28;20049;-44
2020/12/13 12:25:29;;;;;;;1.52;0.50;;;19.00;69.80;;;;;;5044259;28;20031;-44
2020/12/13 12:27:54;;;;;;;2.65;0.40;;;19.00;69.40;;;;;;5045637;28;20044;-47
2020/12/13 12:30:20;;;;;;;2.63;0.60;;;19.00;70.70;;;;;;5046790;28;20021;-43
2020/12/13 12:32:45;;;;;;;1.25;0.50;;;19.00;70.70;;;;;;5043879;28;20071;-43
2020/12/13 12:35:11;;;;;;;4.68;1.10;;;19.00;71.10;;;;;;5049083;28;20021;-43
2020/12/13 12:37:36;;;;;;;9.10;6.35;;;18.90;69.90;;;;;;5047858;28;20029;-43
2020/12/13 12:40:03;;;;;;;17.75;14.85;;;18.90;70.20;;;;;;5049075;28;20025;-44
2020/12/13 12:42:30;;;;;;;15.80;12.15;;;19.00;70.50;;;;;;5049492;28;20029;-43
2020/12/13 12:44:56;;;;;;;21.67;16.73;;;19.00;70.60;;;;;;5047660;28;20033;-43
2020/12/13 12:47:21;;;;;;;13.82;11.98;;;19.00;71.80;;;;;;5048370;28;20041;-45
2020/12/13 12:49:47;;;;;;;19.77;15.95;;;19.00;71.20;;;;;;5048090;28;20024;-43
2020/12/13 12:52:14;;;;;;;16.52;14.82;;;18.90;72.10;;;;;;5040073;28;20029;-45
2020/12/13 12:54:39;;;;;;;24.73;14.90;;;19.00;72.30;;;;;;5047742;28;20078;-42
2020/12/13 12:57:06;;;;;;;14.70;12.68;;;19.00;72.20;;;;;;5046357;28;20028;-43
2020/12/13 12:59:43;;;;;;;17.25;13.10;;;19.00;72.20;;;;;;5046294;28;20519;-45
2020/12/13 13:02:09;;;;;;;15.63;12.88;;;19.00;72.30;;;;;;5047469;28;20036;-44
2020/12/13 13:04:41;;;;;;;18.15;12.32;;;19.00;72.20;;;;;;5047642;28;20049;-43
2020/12/13 13:07:15;;;;;;;17.05;12.07;;;19.00;72.10;;;;;;5048675;28;25167;-43
2020/12/13 13:09:52;;;;;;;12.65;10.43;;;19.00;72.10;;;;;;5047174;28;20144;-44
2020/12/13 13:12:18;;;;;;;19.88;10.93;;;19.00;71.90;;;;;;5047354;28;20041;-47
2020/12/13 13:14:44;;;;;;;11.85;9.35;;;19.00;71.60;;;;;;5044145;28;20102;-43
2020/12/13 13:17:21;;;;;;;10.70;9.30;;;19.00;71.50;;;;;;5044914;28;20036;-46
2020/12/13 13:19:49;;;;;;;9.50;8.60;;;19.00;71.30;;;;;;5044555;28;20051;-42
2020/12/13 13:22:14;;;;;;;14.13;9.23;;;19.00;71.30;;;;;;5044944;28;20037;-44
2020/12/13 13:24:40;;;;;;;10.18;9.05;;;19.00;71.40;;;;;;5045984;28;20037;-45
2020/12/13 13:27:06;;;;;;;10.32;8.07;;;19.00;71.40;;;;;;5040798;28;20021;-45
2020/12/13 13:29:31;;;;;;;9.60;8.27;;;19.00;71.30;;;;;;5041703;28;20061;-46
2020/12/13 13:31:57;;;;;;;9.32;7.47;;;19.00;71.20;;;;;;5044733;28;20032;-44
2020/12/13 13:34:22;;;;;;;8.50;7.70;;;19.00;71.20;;;;;;5046898;28;20024;-45
2020/12/13 13:36:48;;;;;;;7.28;6.57;;;19.00;71.10;;;;;;5046997;28;20032;-46
2020/12/13 13:39:14;;;;;;;8.05;6.63;;;19.00;70.80;;;;;;5047913;28;20017;-46
2020/12/13 13:41:39;;;;;;;8.98;7.18;;;19.00;70.70;;;;;;5043326;28;20051;-51
2020/12/13 13:44:15;;;;;;;7.35;6.75;;;19.00;70.40;;;;;;5037674;28;20069;-41
2020/12/13 13:46:57;;;;;;;7.00;6.15;;;19.00;71.00;;;;;;5044773;28;20131;-42
2020/12/13 13:49:32;;;;;;;6.32;5.93;;;19.00;71.10;;;;;;5044509;28;20480;-44
2020/12/13 13:51:58;;;;;;;6.15;5.55;;;19.00;71.00;;;;;;5041033;28;20025;-46
2020/12/13 13:54:24;;;;;;;7.28;5.85;;;19.10;71.10;;;;;;5046080;28;20056;-43
2020/12/13 13:56:58;;;;;;;6.07;5.57;;;19.10;71.00;;;;;;5045284;28;20027;-42
2020/12/13 13:59:27;;;;;;;6.00;5.40;;;19.10;71.10;;;;;;5045827;28;20033;-45
2020/12/13 14:01:53;;;;;;;5.68;5.05;;;19.10;71.00;;;;;;5044837;28;20025;-43
2020/12/13 14:04:18;;;;;;;5.72;4.82;;;19.10;70.80;;;;;;5044926;28;20102;-42
2020/12/13 14:09:16;;;;;;;5.15;4.75;;;19.10;70.80;;;;;;5042932;28;20033;-40
2020/12/13 14:11:41;;;;;;;6.03;5.53;;;19.10;70.90;;;;;;5044369;28;20033;-42
2020/12/13 14:14:07;;;;;;;5.43;5.03;;;19.10;71.00;;;;;;5044460;28;20041;-41
2020/12/13 14:16:32;;;;;;;4.68;4.35;;;19.10;71.00;;;;;;5043173;28;20578;-48
2020/12/13 14:18:58;;;;;;;7.75;5.00;;;19.20;70.90;;;;;;5043091;28;20044;-41
2020/12/13 14:21:23;;;;;;;5.22;4.57;;;19.20;71.00;;;;;;5045204;28;20385;-40
2020/12/13 14:23:49;;;;;;;3.65;3.45;;;19.30;70.90;;;;;;5046512;28;20075;-40
2020/12/13 14:26:15;;;;;;;4.28;3.97;;;19.20;70.00;;;;;;5046134;28;20115;-40
2020/12/13 14:28:41;;;;;;;5.05;4.63;;;19.30;69.80;;;;;;5044621;28;20052;-38
2020/12/13 14:31:06;;;;;;;4.82;4.53;;;19.30;69.90;;;;;;5047957;28;20376;-46
2020/12/13 14:33:33;;;;;;;4.57;4.30;;;19.30;69.90;;;;;;5052023;28;20068;-40
2020/12/13 14:35:58;;;;;;;5.18;4.60;;;19.30;70.60;;;;;;5047261;28;20060;-41
2020/12/13 14:38:24;;;;;;;4.93;4.55;;;19.40;70.50;;;;;;5049813;28;20072;-42
2020/12/13 14:40:49;;;;;;;4.45;3.67;;;19.40;70.30;;;;;;5046355;28;20017;-44
2020/12/13 14:43:15;;;;;;;4.47;3.95;;;19.40;70.30;;;;;;5047973;28;20077;-40
2020/12/13 14:45:40;;;;;;;4.20;3.80;;;19.40;70.10;;;;;;5050695;28;20017;-39
2020/12/13 14:48:07;;;;;;;4.15;3.85;;;19.40;70.30;;;;;;5048066;28;21586;-43
2020/12/13 14:50:33;;;;;;;3.88;3.58;;;19.40;70.20;;;;;;5047365;28;20063;-38
2020/12/13 14:53:06;;;;;;;3.95;3.65;;;19.30;71.10;;;;;;5044090;28;20029;-40
2020/12/13 14:55:33;;;;;;;5.25;3.40;;;19.30;70.10;;;;;;5047931;28;20033;-41
2020/12/13 14:57:59;;;;;;;4.03;3.35;;;19.30;70.20;;;;;;5045462;28;20033;-42
2020/12/13 15:00:25;;;;;;;4.13;3.25;;;19.30;70.10;;;;;;5049027;28;20040;-44
2020/12/13 15:02:51;;;;;;;4.70;2.90;;;19.30;70.10;;;;;;5044907;28;20036;-45
2020/12/13 15:05:16;;;;;;;3.47;3.15;;;19.30;70.10;;;;;;5046510;28;20033;-43
2020/12/13 15:07:42;;;;;;;3.45;3.15;;;19.30;70.10;;;;;;5045972;28;20025;-41
2020/12/13 15:10:08;;;;;;;4.38;2.70;;;19.30;70.00;;;;;;5045752;28;20044;-44
2020/12/13 15:12:34;;;;;;;2.95;2.50;;;19.30;70.10;;;;;;5048283;28;20060;-42
2020/12/13 15:15:14;;;;;;;4.13;2.50;;;19.30;70.10;;;;;;5048674;28;20460;-41
2020/12/13 15:17:41;;;;;;;5.53;2.67;;;19.30;69.80;;;;;;5046228;28;20032;-44
2020/12/13 15:20:07;;;;;;;4.43;2.40;;;19.30;70.10;;;;;;5046399;28;20082;-58
2020/12/13 15:22:32;;;;;;;4.63;2.85;;;19.30;70.10;;;;;;5031078;28;20017;-42
2020/12/13 15:24:58;;;;;;;4.70;2.50;;;19.30;70.90;;;;;;5047692;28;20087;-49
2020/12/13 15:27:24;;;;;;;3.00;2.70;;;19.30;70.00;;;;;;5049441;28;20041;-46
2020/12/13 15:29:49;;;;;;;3.60;2.35;;;19.30;70.00;;;;;;5048300;28;20459;-44
2020/12/13 15:32:15;;;;;;;3.55;2.08;;;19.30;70.10;;;;;;5047409;28;20500;-45
2020/12/13 15:34:41;;;;;;;3.47;2.50;;;19.30;70.20;;;;;;5046839;28;20028;-45
2020/12/13 15:37:06;;;;;;;2.97;2.00;;;19.30;70.20;;;;;;5048730;28;20025;-47
2020/12/13 15:39:32;;;;;;;2.28;2.08;;;19.30;70.20;;;;;;5051088;28;20027;-42
2020/12/13 15:41:58;;;;;;;2.70;1.63;;;19.30;70.10;;;;;;5048955;28;20079;-44
2020/12/13 15:44:25;;;;;;;2.38;1.55;;;19.30;70.10;;;;;;5047629;28;20460;-47
2020/12/13 15:46:51;;;;;;;2.03;1.77;;;19.30;69.70;;;;;;5048881;28;20025;-45
2020/12/13 15:49:17;;;;;;;2.45;2.05;;;19.30;70.00;;;;;;5025909;28;20508;-46
2020/12/13 15:51:43;;;;;;;5.88;1.70;;;19.30;70.00;;;;;;4883505;28;86193;-40
2020/12/13 15:54:08;;;;;;;3.00;1.83;;;19.30;70.00;;;;;;4961158;28;20419;-48
2020/12/13 15:56:34;;;;;;;2.53;1.75;;;19.30;70.00;;;;;;5002872;28;20519;-49
2020/12/13 15:59:00;;;;;;;1.73;1.50;;;19.30;70.40;;;;;;5004041;28;20049;-46
2020/12/13 16:01:27;;;;;;;7.07;1.60;;;19.30;70.20;;;;;;5006998;28;20049;-48
2020/12/13 16:03:57;;;;;;;5.25;1.38;;;19.30;70.40;;;;;;5002010;28;20425;-45
2020/12/13 16:06:24;;;;;;;2.72;1.80;;;19.30;70.40;;;;;;5004615;28;20131;-43
2020/12/13 16:08:51;;;;;;;2.15;1.30;;;19.30;70.30;;;;;;4990638;28;20064;-41
2020/12/13 16:11:17;;;;;;;1.88;1.50;;;19.30;70.40;;;;;;5002330;28;20509;-46
2020/12/13 16:13:42;;;;;;;1.40;1.23;;;19.30;70.50;;;;;;4997339;28;20786;-46
2020/12/13 16:16:08;;;;;;;2.05;1.52;;;19.30;70.60;;;;;;4999454;28;20061;-46
2020/12/13 16:18:33;;;;;;;2.85;1.40;;;19.30;70.60;;;;;;5001495;28;20054;-46
2020/12/13 16:20:59;;;;;;;8.48;1.70;;;19.30;70.70;;;;;;4997767;28;20133;-48
2020/12/13 16:23:25;;;;;;;4.35;1.40;;;19.40;70.70;;;;;;5000123;28;20112;-39
2020/12/13 16:25:52;;;;;;;7.22;1.10;;;19.40;70.60;;;;;;4994082;28;20045;-48
2020/12/13 16:28:18;;;;;;;3.28;1.33;;;19.40;70.60;;;;;;4999211;28;20038;-45
2020/12/13 16:30:44;;;;;;;1.85;1.40;;;19.40;70.50;;;;;;5001525;28;20041;-47
2020/12/13 16:33:09;;;;;;;3.08;1.20;;;19.40;70.60;;;;;;5004663;28;20782;-46
2020/12/13 16:35:35;;;;;;;4.82;1.35;;;19.40;70.70;;;;;;5001240;28;20049;-45
2020/12/13 16:40:28;;;;;;;3.95;1.00;;;19.40;70.60;;;;;;5000665;28;20045;-46
2020/12/13 16:43:15;;;;;;;5.45;1.25;;;19.40;70.50;;;;;;5002702;28;20050;-47
2020/12/13 16:45:44;;;;;;;4.28;1.13;;;19.40;70.60;;;;;;5002956;28;20049;-48
2020/12/13 16:55:57;;;;;;;1.45;1.10;;;19.40;70.60;;;;;;5000934;28;20053;-46
2020/12/13 16:58:22;;;;;;;5.35;1.08;;;19.40;70.50;;;;;;5005625;28;20040;-47
2020/12/13 17:00:48;;;;;;;1.73;1.35;;;19.40;70.50;;;;;;4992640;28;20423;-48
2020/12/13 17:03:14;;;;;;;1.38;1.05;;;19.40;70.60;;;;;;4658972;28;10000272;-46
2020/12/13 17:05:40;;;;;;;4.38;0.90;;;19.40;70.50;;;;;;4995975;28;20058;-50
2020/12/13 17:08:05;;;;;;;1.50;1.02;;;19.40;70.70;;;;;;4995364;28;20148;-51
2020/12/13 17:10:32;;;;;;;0.80;0.80;;;19.30;70.70;;;;;;4997871;28;20200;-52
2020/12/13 17:12:58;;;;;;;1.08;0.88;;;19.30;70.70;;;;;;5004323;28;20050;-49
2020/12/13 17:15:25;;;;;;;1.08;0.98;;;19.30;70.60;;;;;;5003690;28;20828;-52
2020/12/13 17:17:51;;;;;;;0.73;0.73;;;19.30;70.60;;;;;;5002989;28;20567;-45
2020/12/13 17:20:16;;;;;;;4.10;1.20;;;19.30;70.60;;;;;;5004100;28;20065;-47
2020/12/13 17:22:42;;;;;;;1.83;0.82;;;19.30;70.60;;;;;;5003842;28;20111;-48
2020/12/13 17:25:08;;;;;;;0.77;0.77;;;19.30;70.70;;;;;;4999312;28;20049;-46
2020/12/13 17:27:33;;;;;;;1.05;0.90;;;19.30;70.70;;;;;;5003522;28;20448;-45
2020/12/13 17:29:59;;;;;;;0.80;0.80;;;19.30;70.70;;;;;;4994596;28;20051;-47
2020/12/13 17:32:24;;;;;;;1.33;1.13;;;19.30;70.70;;;;;;4992579;28;20050;-50
2020/12/13 17:34:50;;;;;;;1.08;1.00;;;19.30;70.70;;;;;;4988050;28;20088;-43
2020/12/13 17:37:16;;;;;;;1.10;0.80;;;19.30;70.40;;;;;;4984434;28;20069;-47
2020/12/13 17:39:42;;;;;;;1.33;1.00;;;19.20;70.40;;;;;;4983047;28;20099;-42
2020/12/13 17:42:08;;;;;;;3.10;1.15;;;19.30;70.50;;;;;;5001661;28;20046;-47
2020/12/13 17:44:36;;;;;;;2.92;0.90;;;19.20;70.50;;;;;;4997303;28;20579;-52
2020/12/13 17:47:02;;;;;;;1.05;0.95;;;19.20;70.20;;;;;;5000622;28;20053;-47
2020/12/13 17:49:29;;;;;;;4.65;0.77;;;19.30;70.00;;;;;;5001681;28;20092;-48
2020/12/13 17:52:17;;;;;;;2.35;0.75;;;19.20;70.40;;;;;;4999182;28;20076;-48
2020/12/13 17:57:39;;;;;;;2.17;0.80;;;19.30;70.40;;;;;;5001114;28;20417;-52
2020/12/13 18:00:15;;;;;;;3.97;0.98;;;19.20;70.30;;;;;;4999608;28;20093;-49
2020/12/13 18:02:44;;;;;;;3.60;0.85;;;19.20;70.30;;;;;;5000578;28;20113;-43
2020/12/13 18:05:13;;;;;;;1.23;1.00;;;19.20;70.30;;;;;;5001479;28;20564;-45
2020/12/13 18:07:39;;;;;;;3.03;1.00;;;19.20;70.30;;;;;;5003100;28;20081;-50
2020/12/13 18:10:05;;;;;;;2.15;0.80;;;19.20;70.40;;;;;;5006428;28;20030;-50
2020/12/13 18:12:31;;;;;;;7.72;1.00;;;19.20;70.30;;;;;;5006378;28;20104;-50
2020/12/13 18:15:02;;;;;;;2.75;0.75;;;19.20;70.30;;;;;;5002011;28;20044;-47
2020/12/13 18:17:28;;;;;;;3.42;0.95;;;19.30;70.30;;;;;;5003096;28;20634;-49
2020/12/13 18:19:54;;;;;;;1.48;0.77;;;19.20;70.30;;;;;;5001858;28;20034;-48
2020/12/13 18:22:22;;;;;;;1.55;0.80;;;19.20;70.30;;;;;;5001820;28;20030;-48
2020/12/13 18:24:48;;;;;;;4.70;0.85;;;19.20;70.30;;;;;;5005065;28;20041;-47
2020/12/13 18:27:13;;;;;;;2.97;0.75;;;19.20;70.40;;;;;;4998620;28;20056;-49
2020/12/13 18:29:39;;;;;;;3.33;0.88;;;19.20;70.70;;;;;;5001293;28;20413;-42
2020/12/13 18:32:05;;;;;;;2.78;0.90;;;19.20;70.80;;;;;;5000244;28;20077;-45
2020/12/13 18:34:30;;;;;;;2.45;1.20;;;19.20;70.70;;;;;;5010592;28;20474;-49
2020/12/13 18:36:56;;;;;;;2.72;0.90;;;19.20;70.30;;;;;;5010857;28;20050;-49
2020/12/13 18:39:22;;;;;;;1.73;0.80;;;19.20;70.20;;;;;;5024322;28;20395;-48
2020/12/13 18:41:51;;;;;;;1.35;0.73;;;19.20;70.20;;;;;;5001202;28;20498;-48
2020/12/13 18:44:17;;;;;;;1.27;1.17;;;19.20;69.90;;;;;;4996269;28;20042;-49
2020/12/13 18:46:47;;;;;;;1.70;0.82;;;19.20;70.90;;;;;;5002950;28;20575;-49
2020/12/13 18:49:13;;;;;;;3.33;1.10;;;19.20;70.20;;;;;;5001284;28;20041;-47
2020/12/13 18:51:38;;;;;;;4.90;1.40;;;19.20;70.40;;;;;;4997202;28;20046;-45
2020/12/13 18:54:04;;;;;;;2.75;1.50;;;19.20;70.30;;;;;;4999674;28;20454;-46
2020/12/13 18:56:29;;;;;;;2.47;1.52;;;19.20;70.60;;;;;;5000794;28;20046;-43
2020/12/13 18:58:55;;;;;;;3.58;2.70;;;19.20;70.70;;;;;;5007293;28;20107;-49
2020/12/13 19:01:21;;;;;;;5.07;2.75;;;19.20;70.70;;;;;;4999945;28;20503;-48
2020/12/13 19:06:27;;;;;;;7.13;4.05;;;19.20;70.80;;;;;;5006392;28;20054;-49
2020/12/13 19:08:53;;;;;;;4.35;3.95;;;19.20;70.90;;;;;;5001814;28;20803;-48
2020/12/13 19:11:19;;;;;;;4.47;3.65;;;19.20;70.80;;;;;;5010441;28;20041;-48
2020/12/13 19:13:45;;;;;;;6.30;4.10;;;19.20;70.80;;;;;;5003729;28;20421;-48
2020/12/13 19:16:11;;;;;;;4.85;4.03;;;19.20;70.70;;;;;;4659212;28;10000253;-50
2020/12/13 19:18:39;;;;;;;5.95;3.55;;;19.20;70.90;;;;;;5007565;28;20505;-48
2020/12/13 19:21:05;;;;;;;4.25;3.85;;;19.20;70.80;;;;;;5004039;28;20517;-51
2020/12/13 19:23:30;;;;;;;4.50;4.00;;;19.20;70.80;;;;;;4998296;28;20057;-42
2020/12/13 19:25:56;;;;;;;6.85;4.00;;;19.20;71.30;;;;;;4998259;28;20037;-46
2020/12/13 19:28:22;;;;;;;5.85;3.72;;;19.20;71.30;;;;;;5006061;28;20022;-42
2020/12/13 19:30:47;;;;;;;3.85;3.53;;;19.30;71.50;;;;;;5006765;28;20501;-44
2020/12/13 19:33:13;;;;;;;4.32;3.50;;;19.20;71.10;;;;;;5008019;28;20061;-49
2020/12/13 19:35:39;;;;;;;7.03;3.90;;;19.20;71.00;;;;;;5005421;28;20140;-50
2020/12/13 19:38:05;;;;;;;8.60;7.40;;;19.20;71.00;;;;;;4998601;28;20039;-44
2020/12/13 19:40:31;;;;;;;12.05;8.98;;;19.20;70.90;;;;;;5000806;28;20026;-45
2020/12/13 19:42:56;;;;;;;10.13;6.35;;;19.20;71.10;;;;;;5005992;28;20156;-46
2020/12/13 19:45:22;;;;;;;8.75;4.80;;;19.20;71.40;;;;;;5008160;28;20022;-49
2020/12/13 19:47:48;;;;;;;8.13;5.80;;;19.20;71.30;;;;;;5003755;28;20084;-48
2020/12/13 19:50:14;;;;;;;7.60;5.20;;;19.20;71.20;;;;;;5002868;28;20526;-48
2020/12/13 19:52:40;;;;;;;6.60;4.95;;;19.20;71.10;;;;;;5005581;28;20038;-52
2020/12/13 19:55:06;;;;;;;7.07;4.65;;;19.20;71.20;;;;;;5004975;28;20465;-47
2020/12/13 19:57:32;;;;;;;6.18;4.57;;;19.20;71.10;;;;;;5006265;28;20034;-47
2020/12/13 19:59:58;;;;;;;5.05;4.57;;;19.20;71.10;;;;;;5004255;28;20030;-46
2020/12/13 20:02:26;;;;;;;9.93;4.40;;;19.20;71.00;;;;;;5003193;28;20493;-47
2020/12/13 20:04:51;;;;;;;5.68;4.88;;;19.20;70.80;;;;;;5003027;28;20045;-48
2020/12/13 20:07:20;;;;;;;5.97;4.53;;;19.20;70.80;;;;;;4998511;28;20421;-48
2020/12/13 20:09:46;;;;;;;4.63;4.22;;;19.20;71.10;;;;;;5002291;28;20033;-45
2020/12/13 20:12:11;;;;;;;6.47;4.10;;;19.20;71.10;;;;;;5005566;28;20034;-46
2020/12/13 20:17:27;;;;;;;4.63;3.78;;;19.20;71.10;;;;;;5002649;28;20034;-48
2020/12/13 20:21:20;;;;;;;3.83;3.28;;;19.20;71.10;;;;;;5003022;28;20061;-47
2020/12/13 20:28:52;;;;;;;4.38;3.80;;;19.20;70.70;;;;;;5001804;28;20374;-49
2020/12/13 21:17:02;;;;;;;2.42;2.28;;;19.20;69.60;;;;;;5004434;28;20026;-50
2020/12/13 21:19:29;;;;;;;2.97;2.25;;;19.20;69.60;;;;;;5001767;28;20037;-47
2020/12/13 21:22:02;;;;;;;5.93;2.20;;;19.20;69.60;;;;;;5003769;28;20034;-45
2020/12/13 21:25:16;;;;;;;2.20;1.80;;;19.20;69.60;;;;;;5003576;28;20049;-47
2020/12/13 21:28:27;;;;;;;3.33;1.88;;;19.20;69.60;;;;;;5003600;28;20360;-45
2020/12/13 21:33:09;;;;;;;2.47;1.92;;;19.20;69.80;;;;;;5003156;28;20080;-48
2020/12/13 21:38:42;;;;;;;2.65;2.13;;;19.20;69.70;;;;;;4998159;28;20133;-46
2020/12/13 21:46:38;;;;;;;1.90;1.80;;;19.20;69.70;;;;;;5002300;28;20083;-50
2020/12/13 21:51:30;;;;;;;1.85;1.75;;;19.20;69.70;;;;;;5004634;28;20053;-46
2020/12/13 21:53:57;;;;;;;1.98;1.88;;;19.20;69.70;;;;;;5002114;28;20042;-48
2020/12/13 22:07:15;;;;;;;1.95;1.63;;;19.20;69.70;;;;;;5005441;28;20030;-49
2020/12/13 22:27:47;;;;;;;1.50;1.40;;;19.20;69.60;;;;;;5040120;28;20289;-50
2020/12/13 22:30:12;;;;;;;3.13;1.35;;;19.20;69.60;;;;;;5039127;28;20591;-47
2020/12/13 22:32:38;;;;;;;1.42;1.33;;;19.20;69.60;;;;;;5036462;28;20098;-48
2020/12/13 22:35:03;;;;;;;1.80;1.70;;;19.20;70.30;;;;;;5036327;28;20041;-48
2020/12/13 22:37:29;;;;;;;1.58;1.48;;;19.20;69.60;;;;;;5041457;28;20033;-48
2020/12/13 22:39:55;;;;;;;1.30;1.20;;;19.20;69.00;;;;;;5042095;28;20120;-47
2020/12/13 22:42:20;;;;;;;2.15;1.55;;;19.20;69.60;;;;;;5046188;28;20025;-48
2020/12/13 22:44:46;;;;;;;1.80;1.10;;;19.20;69.60;;;;;;5039764;28;20053;-46
2020/12/13 22:47:11;;;;;;;1.17;1.08;;;19.20;69.60;;;;;;5044178;28;20021;-48
2020/12/13 22:49:37;;;;;;;1.17;1.05;;;19.20;69.60;;;;;;5042493;28;20542;-47
2020/12/13 22:52:03;;;;;;;1.42;1.15;;;19.20;69.60;;;;;;5022469;28;20515;-48
2020/12/13 22:54:28;;;;;;;0.98;0.98;;;19.10;69.50;;;;;;5013179;28;20084;-49
2020/12/13 22:56:54;;;;;;;1.05;1.02;;;19.10;69.50;;;;;;5007326;28;20183;-46
2020/12/13 22:59:19;;;;;;;1.17;1.08;;;19.20;69.40;;;;;;5007305;28;20025;-46
2020/12/13 23:01:45;;;;;;;2.35;1.00;;;19.10;69.40;;;;;;5009834;28;20056;-47
2020/12/13 23:04:11;;;;;;;1.27;1.08;;;19.10;69.40;;;;;;5008804;28;20045;-51
2020/12/13 23:06:36;;;;;;;1.23;1.13;;;19.10;69.50;;;;;;5011737;28;20026;-46
2020/12/13 23:09:03;;;;;;;1.73;0.85;;;19.10;69.40;;;;;;5006787;28;20084;-46
2020/12/13 23:11:29;;;;;;;0.90;0.90;;;19.10;69.50;;;;;;5004577;28;20032;-46
2020/12/13 23:13:55;;;;;;;1.85;0.90;;;19.10;69.40;;;;;;5006802;28;20025;-46
2020/12/13 23:16:20;;;;;;;1.17;1.00;;;19.10;69.30;;;;;;5010760;28;20037;-48
2020/12/13 23:18:46;;;;;;;1.13;1.02;;;19.10;69.50;;;;;;5011648;28;20096;-48
2020/12/13 23:21:11;;;;;;;2.38;1.00;;;19.10;70.00;;;;;;5010548;28;20037;-46
2020/12/13 23:23:37;;;;;;;1.70;0.70;;;19.10;70.10;;;;;;5002160;28;20128;-46
2020/12/13 23:26:02;;;;;;;3.28;0.90;;;19.10;70.00;;;;;;4997850;28;20057;-45
